Weather at Trois-Rivières Airport

Public forecast

Using degrees Celsius for public forecast. Weather courtesy of forecast.io.

Current aviation weather report (METAR) for Trois-Rivières Airport

2024/07/25 07:26 (retrieved 10 minutes ago)

CYRQ 250726Z AUTO 22009KT 9SM OVC009 20/20 A2990 RMK SLP126 DENSITY ALT 900FT

Closest aviation forecast (TAF) to Trois-Rivières Airport

Forecast is more than 12 hours old.

Closest forecast is C J.H.L.(Joe) Lecomte) Heliport, 58.7 nm (108.6 km) NE.

2024/07/24 18:24 Ammendment (retrieved 13 hours ago)

TAF AMD CYOY 241922Z 2418/2506 CNL RMK END OF FLY PROGRAM NXT FCST BY 250000Z